Aviation Digital Data Service (ADDS)

Output produced by METARs form (1117 UTC 07 July 2020)
found at http://www.aviationweather.gov/metar/data/
 
METAR text: RKNN 070056Z 04006KT 9000 BR FEW040 SCT100 25/21 A2962
Conditions at: RKNN (KANGNUNG (KOR-AF, KR) observed 0056 UTC 07 July 2020
Temperature: 25.0°C (77°F)
Dewpoint: 21.0°C (70°F) [RH = 79%]
Pressure (altimeter): 29.62 inches Hg (1003.1 mb)
Winds: from the NE (40 degrees) at 7 MPH (6 knots; 3.1 m/s)
Visibility: 6 miles ( 9 km)
Ceiling: at least 12,000 feet AGL
Clouds: few clouds at 4000 feet AGL
scattered clouds at 10000 feet AGL
Weather: BR  (mist)

METAR text: RKNN 062128Z 23003KT 6000 BR SCT015 BKN040 22/20 A2962 RMK CIG040
Conditions at: RKNN (KANGNUNG (KOR-AF, KR) observed 2128 UTC 06 July 2020
Temperature: 22.0°C (72°F)
Dewpoint: 20.0°C (68°F) [RH = 88%]
Pressure (altimeter): 29.62 inches Hg (1003.1 mb)
Winds: from the SW (230 degrees) at 3 MPH (3 knots; 1.5 m/s)
Visibility: 4 miles ( 6 km)
Ceiling: 4000 feet AGL
Clouds: scattered clouds at 1500 feet AGL
broken clouds at 4000 feet AGL
Weather: BR  (mist)

METAR text: RKNN 062049Z 23004KT 6000 BR BKN015 BKN040 21/20 A2962 RMK CIG015
Conditions at: RKNN (KANGNUNG (KOR-AF, KR) observed 2049 UTC 06 July 2020
Temperature: 21.0°C (70°F)
Dewpoint: 20.0°C (68°F) [RH = 94%]
Pressure (altimeter): 29.62 inches Hg (1003.1 mb)
Winds: from the SW (230 degrees) at 5 MPH (4 knots; 2.1 m/s)
Visibility: 4 miles ( 6 km)
Ceiling: 1500 feet AGL
Clouds: broken clouds at 1500 feet AGL
broken clouds at 4000 feet AGL
Weather: BR  (mist)

METAR text: RKNN 061844Z 30001KT 4800 BR OVC004 21/20 A2959 RMK CIG004
Conditions at: RKNN (KANGNUNG (KOR-AF, KR) observed 1844 UTC 06 July 2020
Temperature: 21.0°C (70°F)
Dewpoint: 20.0°C (68°F) [RH = 94%]
Pressure (altimeter): 29.59 inches Hg (1002.1 mb)
Winds: from the WNW (300 degrees) at 1 MPH (1 knots; 0.5 m/s)
Visibility: 2.98 miles (4.80 km)
Ceiling: 400 feet AGL
Clouds: overcast cloud deck at 400 feet AGL
Weather: BR  (mist)

METAR text: RKNN 061640Z 01001KT 4800 BR BKN003 21/20 A2956 RMK CIG003
Conditions at: RKNN (KANGNUNG (KOR-AF, KR) observed 1640 UTC 06 July 2020
Temperature: 21.0°C (70°F)
Dewpoint: 20.0°C (68°F) [RH = 94%]
Pressure (altimeter): 29.56 inches Hg (1001.1 mb)
Winds: from the N (10 degrees) at 1 MPH (1 knots; 0.5 m/s)
Visibility: 2.98 miles (4.80 km)
Ceiling: 300 feet AGL
Clouds: broken clouds at 300 feet AGL
Weather: BR  (mist)

METAR text: RKNN 061635Z 02002KT 6000 BR BKN003 21/20 A2956 RMK CIG003
Conditions at: RKNN (KANGNUNG (KOR-AF, KR) observed 1635 UTC 06 July 2020
Temperature: 21.0°C (70°F)
Dewpoint: 20.0°C (68°F) [RH = 94%]
Pressure (altimeter): 29.56 inches Hg (1001.1 mb)
Winds: from the NNE (20 degrees) at 2 MPH (2 knots; 1.0 m/s)
Visibility: 4 miles ( 6 km)
Ceiling: 300 feet AGL
Clouds: broken clouds at 300 feet AGL
Weather: BR  (mist)

METAR text: RKNN 060420Z 04008KT 9999 FEW003 BKN230 25/20 A2957 RMK CIG230
Conditions at: RKNN (KANGNUNG (KOR-AF, KR) observed 0420 UTC 06 July 2020
Temperature: 25.0°C (77°F)
Dewpoint: 20.0°C (68°F) [RH = 74%]
Pressure (altimeter): 29.57 inches Hg (1001.4 mb)
Winds: from the NE (40 degrees) at 9 MPH (8 knots; 4.1 m/s)
Visibility: 6 or more miles (10+ km)
Ceiling: 23000 feet AGL
Clouds: few clouds at 300 feet AGL
broken clouds at 23000 feet AGL
Weather: no significant weather observed at this time